sensor_id;sensor_type;location;lat;lon;timestamp;P1;durP1;ratioP1;P2;durP2;ratioP2
462;SDS011;218;51.902;9.542;2024-03-22T00:01:49;3.25;;;1.90;;
462;SDS011;218;51.902;9.542;2024-03-22T00:04:16;3.33;;;3.03;;
462;SDS011;218;51.902;9.542;2024-03-22T00:06:46;2.53;;;2.33;;
462;SDS011;218;51.902;9.542;2024-03-22T00:09:14;2.40;;;2.20;;
462;SDS011;218;51.902;9.542;2024-03-22T00:11:41;3.10;;;2.90;;
462;SDS011;218;51.902;9.542;2024-03-22T00:14:08;2.30;;;2.10;;
462;SDS011;218;51.902;9.542;2024-03-22T00:16:36;3.40;;;3.10;;
462;SDS011;218;51.902;9.542;2024-03-22T00:19:02;3.20;;;1.90;;
462;SDS011;218;51.902;9.542;2024-03-22T00:21:29;2.60;;;2.40;;
462;SDS011;218;51.902;9.542;2024-03-22T00:23:57;3.00;;;2.65;;
462;SDS011;218;51.902;9.542;2024-03-22T00:26:26;3.22;;;2.92;;
462;SDS011;218;51.902;9.542;2024-03-22T00:28:52;4.25;;;3.95;;
462;SDS011;218;51.902;9.542;2024-03-22T00:31:19;3.20;;;2.47;;
462;SDS011;218;51.902;9.542;2024-03-22T00:33:47;5.28;;;4.47;;
462;SDS011;218;51.902;9.542;2024-03-22T00:36:16;2.85;;;2.60;;
462;SDS011;218;51.902;9.542;2024-03-22T00:38:43;3.33;;;2.63;;
462;SDS011;218;51.902;9.542;2024-03-22T00:41:16;2.60;;;2.40;;
462;SDS011;218;51.902;9.542;2024-03-22T00:43:42;2.75;;;2.00;;
462;SDS011;218;51.902;9.542;2024-03-22T00:46:09;2.70;;;2.30;;
462;SDS011;218;51.902;9.542;2024-03-22T00:48:36;3.28;;;2.97;;
462;SDS011;218;51.902;9.542;2024-03-22T00:51:03;2.97;;;2.40;;
462;SDS011;218;51.902;9.542;2024-03-22T00:53:30;3.37;;;3.07;;
462;SDS011;218;51.902;9.542;2024-03-22T00:55:57;26.45;;;4.35;;
462;SDS011;218;51.902;9.542;2024-03-22T00:58:26;11.37;;;7.33;;
462;SDS011;218;51.902;9.542;2024-03-22T01:00:53;14.18;;;10.95;;
462;SDS011;218;51.902;9.542;2024-03-22T01:03:20;12.30;;;5.90;;
462;SDS011;218;51.902;9.542;2024-03-22T01:05:47;16.35;;;7.65;;
462;SDS011;218;51.902;9.542;2024-03-22T01:08:13;12.80;;;11.60;;
462;SDS011;218;51.902;9.542;2024-03-22T01:10:40;9.80;;;6.95;;
462;SDS011;218;51.902;9.542;2024-03-22T01:13:08;9.98;;;7.68;;
462;SDS011;218;51.902;9.542;2024-03-22T01:15:36;13.02;;;8.63;;
462;SDS011;218;51.902;9.542;2024-03-22T01:18:03;10.30;;;8.10;;
462;SDS011;218;51.902;9.542;2024-03-22T01:20:30;11.68;;;8.05;;
462;SDS011;218;51.902;9.542;2024-03-22T01:22:58;9.02;;;8.13;;
462;SDS011;218;51.902;9.542;2024-03-22T01:25:26;11.82;;;7.90;;
462;SDS011;218;51.902;9.542;2024-03-22T01:27:53;13.25;;;11.85;;
462;SDS011;218;51.902;9.542;2024-03-22T01:30:20;9.13;;;8.32;;
462;SDS011;218;51.902;9.542;2024-03-22T01:32:49;10.48;;;8.98;;
462;SDS011;218;51.902;9.542;2024-03-22T01:35:16;13.02;;;7.97;;
462;SDS011;218;51.902;9.542;2024-03-22T01:37:42;12.40;;;11.40;;
462;SDS011;218;51.902;9.542;2024-03-22T01:40:10;9.38;;;8.10;;
462;SDS011;218;51.902;9.542;2024-03-22T01:42:37;10.38;;;9.27;;
462;SDS011;218;51.902;9.542;2024-03-22T01:45:04;9.77;;;8.43;;
462;SDS011;218;51.902;9.542;2024-03-22T01:47:30;11.20;;;9.10;;
462;SDS011;218;51.902;9.542;2024-03-22T01:49:59;11.45;;;9.63;;
462;SDS011;218;51.902;9.542;2024-03-22T01:52:26;12.20;;;9.60;;
462;SDS011;218;51.902;9.542;2024-03-22T01:54:54;12.32;;;8.98;;
462;SDS011;218;51.902;9.542;2024-03-22T01:57:20;9.75;;;8.55;;
462;SDS011;218;51.902;9.542;2024-03-22T01:59:48;9.93;;;8.57;;
462;SDS011;218;51.902;9.542;2024-03-22T02:02:15;15.20;;;14.00;;
462;SDS011;218;51.902;9.542;2024-03-22T02:04:42;10.85;;;8.98;;
462;SDS011;218;51.902;9.542;2024-03-22T02:07:10;10.43;;;9.43;;
462;SDS011;218;51.902;9.542;2024-03-22T02:09:37;9.95;;;8.95;;
462;SDS011;218;51.902;9.542;2024-03-22T02:12:04;9.27;;;8.30;;
462;SDS011;218;51.902;9.542;2024-03-22T02:14:31;17.90;;;7.57;;
462;SDS011;218;51.902;9.542;2024-03-22T02:16:58;17.23;;;8.32;;
462;SDS011;218;51.902;9.542;2024-03-22T02:19:25;10.48;;;8.18;;
462;SDS011;218;51.902;9.542;2024-03-22T02:21:51;10.50;;;8.30;;
462;SDS011;218;51.902;9.542;2024-03-22T02:24:19;12.18;;;9.40;;
462;SDS011;218;51.902;9.542;2024-03-22T02:26:46;11.70;;;8.93;;
462;SDS011;218;51.902;9.542;2024-03-22T02:29:13;11.48;;;10.10;;
462;SDS011;218;51.902;9.542;2024-03-22T02:31:39;13.03;;;8.67;;
462;SDS011;218;51.902;9.542;2024-03-22T02:34:06;10.55;;;9.40;;
462;SDS011;218;51.902;9.542;2024-03-22T02:36:32;14.37;;;10.07;;
462;SDS011;218;51.902;9.542;2024-03-22T02:38:59;11.52;;;10.35;;
462;SDS011;218;51.902;9.542;2024-03-22T02:41:26;9.98;;;8.98;;
462;SDS011;218;51.902;9.542;2024-03-22T02:43:53;12.73;;;9.93;;
462;SDS011;218;51.902;9.542;2024-03-22T02:46:19;12.32;;;9.55;;
462;SDS011;218;51.902;9.542;2024-03-22T02:48:46;11.60;;;10.40;;
462;SDS011;218;51.902;9.542;2024-03-22T02:51:13;12.20;;;10.82;;
462;SDS011;218;51.902;9.542;2024-03-22T02:53:40;10.93;;;9.88;;
462;SDS011;218;51.902;9.542;2024-03-22T02:56:06;10.88;;;9.70;;
462;SDS011;218;51.902;9.542;2024-03-22T02:58:35;10.60;;;9.60;;
462;SDS011;218;51.902;9.542;2024-03-22T03:01:02;12.18;;;10.98;;
462;SDS011;218;51.902;9.542;2024-03-22T03:03:31;11.43;;;10.10;;
462;SDS011;218;51.902;9.542;2024-03-22T03:05:57;11.50;;;10.40;;
462;SDS011;218;51.902;9.542;2024-03-22T03:08:24;11.77;;;10.68;;
462;SDS011;218;51.902;9.542;2024-03-22T03:10:50;11.57;;;10.48;;
462;SDS011;218;51.902;9.542;2024-03-22T03:13:17;12.70;;;11.07;;
462;SDS011;218;51.902;9.542;2024-03-22T03:15:45;12.60;;;11.32;;
462;SDS011;218;51.902;9.542;2024-03-22T03:18:12;11.77;;;10.68;;
462;SDS011;218;51.902;9.542;2024-03-22T03:20:38;12.27;;;11.07;;
462;SDS011;218;51.902;9.542;2024-03-22T03:23:05;11.82;;;10.63;;
462;SDS011;218;51.902;9.542;2024-03-22T03:25:31;12.30;;;11.20;;
462;SDS011;218;51.902;9.542;2024-03-22T03:27:58;12.82;;;11.63;;
462;SDS011;218;51.902;9.542;2024-03-22T03:30:24;13.93;;;12.52;;
462;SDS011;218;51.902;9.542;2024-03-22T03:32:52;13.45;;;12.07;;
462;SDS011;218;51.902;9.542;2024-03-22T03:35:18;13.27;;;11.90;;
462;SDS011;218;51.902;9.542;2024-03-22T03:37:45;15.00;;;12.45;;
462;SDS011;218;51.902;9.542;2024-03-22T03:40:12;12.82;;;11.52;;
462;SDS011;218;51.902;9.542;2024-03-22T03:42:39;11.73;;;9.98;;
462;SDS011;218;51.902;9.542;2024-03-22T03:45:06;11.75;;;10.55;;
462;SDS011;218;51.902;9.542;2024-03-22T03:47:33;12.68;;;11.38;;
462;SDS011;218;51.902;9.542;2024-03-22T03:50:00;12.13;;;10.82;;
462;SDS011;218;51.902;9.542;2024-03-22T03:52:28;14.43;;;11.60;;
462;SDS011;218;51.902;9.542;2024-03-22T03:54:54;13.90;;;11.38;;
462;SDS011;218;51.902;9.542;2024-03-22T03:57:21;12.32;;;11.13;;
462;SDS011;218;51.902;9.542;2024-03-22T03:59:47;12.73;;;11.40;;
462;SDS011;218;51.902;9.542;2024-03-22T04:02:14;13.38;;;12.05;;
462;SDS011;218;51.902;9.542;2024-03-22T04:04:41;13.80;;;11.90;;
462;SDS011;218;51.902;9.542;2024-03-22T04:07:09;13.38;;;11.98;;
462;SDS011;218;51.902;9.542;2024-03-22T04:09:35;14.43;;;11.93;;
462;SDS011;218;51.902;9.542;2024-03-22T04:12:03;13.52;;;11.73;;
462;SDS011;218;51.902;9.542;2024-03-22T04:14:29;13.95;;;12.45;;
462;SDS011;218;51.902;9.542;2024-03-22T04:16:56;13.73;;;12.10;;
462;SDS011;218;51.902;9.542;2024-03-22T04:19:22;14.27;;;12.50;;
462;SDS011;218;51.902;9.542;2024-03-22T04:21:49;15.45;;;12.90;;
462;SDS011;218;51.902;9.542;2024-03-22T04:24:17;14.20;;;12.77;;
462;SDS011;218;51.902;9.542;2024-03-22T04:26:44;14.48;;;12.73;;
462;SDS011;218;51.902;9.542;2024-03-22T04:29:10;14.25;;;12.50;;
462;SDS011;218;51.902;9.542;2024-03-22T04:31:37;14.88;;;13.38;;
462;SDS011;218;51.902;9.542;2024-03-22T04:34:03;15.38;;;13.85;;
462;SDS011;218;51.902;9.542;2024-03-22T04:36:32;14.13;;;12.32;;
462;SDS011;218;51.902;9.542;2024-03-22T04:38:58;14.57;;;13.18;;
462;SDS011;218;51.902;9.542;2024-03-22T04:41:26;15.15;;;13.60;;
462;SDS011;218;51.902;9.542;2024-03-22T04:43:54;13.88;;;12.48;;
462;SDS011;218;51.902;9.542;2024-03-22T04:46:21;15.47;;;13.80;;
462;SDS011;218;51.902;9.542;2024-03-22T04:48:49;14.90;;;12.98;;
462;SDS011;218;51.902;9.542;2024-03-22T04:51:15;15.90;;;14.18;;
462;SDS011;218;51.902;9.542;2024-03-22T04:53:41;14.55;;;13.05;;
462;SDS011;218;51.902;9.542;2024-03-22T04:56:07;15.95;;;12.93;;
462;SDS011;218;51.902;9.542;2024-03-22T04:58:36;15.30;;;13.70;;
462;SDS011;218;51.902;9.542;2024-03-22T05:01:03;16.20;;;14.10;;
462;SDS011;218;51.902;9.542;2024-03-22T05:03:30;14.48;;;12.90;;
462;SDS011;218;51.902;9.542;2024-03-22T05:05:56;14.88;;;13.38;;
462;SDS011;218;51.902;9.542;2024-03-22T05:08:23;13.43;;;12.02;;
462;SDS011;218;51.902;9.542;2024-03-22T05:10:49;15.02;;;13.52;;
462;SDS011;218;51.902;9.542;2024-03-22T05:13:16;15.32;;;13.73;;
462;SDS011;218;51.902;9.542;2024-03-22T05:15:43;14.63;;;13.13;;
462;SDS011;218;51.902;9.542;2024-03-22T05:18:11;18.58;;;12.50;;
462;SDS011;218;51.902;9.542;2024-03-22T05:20:38;37.00;;;15.00;;
462;SDS011;218;51.902;9.542;2024-03-22T05:23:03;28.15;;;14.13;;
462;SDS011;218;51.902;9.542;2024-03-22T05:25:30;19.65;;;13.07;;
462;SDS011;218;51.902;9.542;2024-03-22T05:27:56;25.53;;;13.57;;
462;SDS011;218;51.902;9.542;2024-03-22T05:30:23;26.73;;;14.40;;
462;SDS011;218;51.902;9.542;2024-03-22T05:32:51;19.77;;;13.95;;
462;SDS011;218;51.902;9.542;2024-03-22T05:35:18;19.75;;;13.90;;
462;SDS011;218;51.902;9.542;2024-03-22T05:37:44;22.20;;;13.23;;
462;SDS011;218;51.902;9.542;2024-03-22T05:40:12;20.40;;;13.35;;
462;SDS011;218;51.902;9.542;2024-03-22T05:42:38;16.00;;;12.20;;
462;SDS011;218;51.902;9.542;2024-03-22T05:45:05;16.80;;;12.02;;
462;SDS011;218;51.902;9.542;2024-03-22T05:47:32;17.15;;;13.38;;
462;SDS011;218;51.902;9.542;2024-03-22T05:50:01;17.25;;;12.77;;
462;SDS011;218;51.902;9.542;2024-03-22T05:52:27;16.95;;;12.50;;
462;SDS011;218;51.902;9.542;2024-03-22T05:54:54;17.30;;;13.43;;
462;SDS011;218;51.902;9.542;2024-03-22T05:57:20;16.67;;;12.13;;
462;SDS011;218;51.902;9.542;2024-03-22T05:59:47;18.52;;;12.90;;
462;SDS011;218;51.902;9.542;2024-03-22T06:02:14;17.10;;;13.00;;
462;SDS011;218;51.902;9.542;2024-03-22T06:04:41;20.27;;;14.00;;
462;SDS011;218;51.902;9.542;2024-03-22T06:07:09;14.15;;;12.23;;
462;SDS011;218;51.902;9.542;2024-03-22T06:09:36;15.30;;;12.23;;
462;SDS011;218;51.902;9.542;2024-03-22T06:12:03;16.40;;;13.00;;
462;SDS011;218;51.902;9.542;2024-03-22T06:14:30;20.05;;;12.95;;
462;SDS011;218;51.902;9.542;2024-03-22T06:16:56;17.48;;;13.40;;
462;SDS011;218;51.902;9.542;2024-03-22T06:19:23;18.08;;;13.90;;
462;SDS011;218;51.902;9.542;2024-03-22T06:21:50;19.05;;;13.85;;
462;SDS011;218;51.902;9.542;2024-03-22T06:24:18;19.48;;;13.15;;
462;SDS011;218;51.902;9.542;2024-03-22T06:26:45;25.30;;;14.63;;
462;SDS011;218;51.902;9.542;2024-03-22T06:29:12;28.10;;;13.23;;
462;SDS011;218;51.902;9.542;2024-03-22T06:31:37;19.50;;;13.60;;
462;SDS011;218;51.902;9.542;2024-03-22T06:34:05;19.30;;;13.90;;
462;SDS011;218;51.902;9.542;2024-03-22T06:36:31;20.80;;;14.70;;
462;SDS011;218;51.902;9.542;2024-03-22T06:38:58;20.10;;;12.90;;
462;SDS011;218;51.902;9.542;2024-03-22T06:41:25;15.70;;;12.43;;
462;SDS011;218;51.902;9.542;2024-03-22T06:43:53;18.52;;;11.77;;
462;SDS011;218;51.902;9.542;2024-03-22T06:46:19;13.73;;;11.02;;
462;SDS011;218;51.902;9.542;2024-03-22T06:48:46;31.77;;;29.60;;
462;SDS011;218;51.902;9.542;2024-03-22T06:51:12;17.80;;;11.80;;
462;SDS011;218;51.902;9.542;2024-03-22T06:53:39;13.75;;;10.60;;
462;SDS011;218;51.902;9.542;2024-03-22T06:56:05;13.57;;;11.20;;
462;SDS011;218;51.902;9.542;2024-03-22T06:58:35;14.85;;;11.18;;
462;SDS011;218;51.902;9.542;2024-03-22T07:01:02;13.38;;;10.50;;
462;SDS011;218;51.902;9.542;2024-03-22T07:03:29;13.30;;;10.93;;
462;SDS011;218;51.902;9.542;2024-03-22T07:05:55;11.02;;;9.48;;
462;SDS011;218;51.902;9.542;2024-03-22T07:08:22;12.23;;;10.55;;
462;SDS011;218;51.902;9.542;2024-03-22T07:13:48;13.05;;;10.40;;
462;SDS011;218;51.902;9.542;2024-03-22T07:16:16;10.50;;;7.90;;
462;SDS011;218;51.902;9.542;2024-03-22T07:18:42;7.85;;;6.30;;
462;SDS011;218;51.902;9.542;2024-03-22T07:21:09;14.90;;;6.20;;
462;SDS011;218;51.902;9.542;2024-03-22T07:23:35;10.07;;;5.67;;
462;SDS011;218;51.902;9.542;2024-03-22T07:26:02;11.25;;;6.57;;
462;SDS011;218;51.902;9.542;2024-03-22T07:28:30;12.85;;;6.57;;
462;SDS011;218;51.902;9.542;2024-03-22T07:30:59;11.68;;;6.47;;
462;SDS011;218;51.902;9.542;2024-03-22T07:33:25;7.60;;;6.80;;
462;SDS011;218;51.902;9.542;2024-03-22T07:35:52;10.37;;;5.90;;
462;SDS011;218;51.902;9.542;2024-03-22T07:38:19;8.67;;;6.03;;
462;SDS011;218;51.902;9.542;2024-03-22T07:40:46;10.60;;;6.75;;
462;SDS011;218;51.902;9.542;2024-03-22T07:43:12;7.50;;;6.63;;
462;SDS011;218;51.902;9.542;2024-03-22T07:45:41;12.38;;;7.10;;
462;SDS011;218;51.902;9.542;2024-03-22T07:48:09;8.95;;;6.60;;
462;SDS011;218;51.902;9.542;2024-03-22T07:50:36;9.27;;;5.80;;
462;SDS011;218;51.902;9.542;2024-03-22T07:53:02;9.77;;;6.57;;
462;SDS011;218;51.902;9.542;2024-03-22T07:55:29;11.17;;;7.90;;
462;SDS011;218;51.902;9.542;2024-03-22T07:57:56;9.70;;;6.90;;
462;SDS011;218;51.902;9.542;2024-03-22T08:00:23;9.10;;;6.93;;
462;SDS011;218;51.902;9.542;2024-03-22T08:02:50;8.10;;;6.57;;
462;SDS011;218;51.902;9.542;2024-03-22T08:05:18;14.65;;;10.55;;
462;SDS011;218;51.902;9.542;2024-03-22T08:07:44;10.18;;;9.05;;
462;SDS011;218;51.902;9.542;2024-03-22T08:10:12;11.52;;;8.68;;
462;SDS011;218;51.902;9.542;2024-03-22T08:12:41;12.33;;;9.60;;
462;SDS011;218;51.902;9.542;2024-03-22T08:15:08;12.63;;;8.93;;
462;SDS011;218;51.902;9.542;2024-03-22T08:17:35;11.37;;;9.20;;
462;SDS011;218;51.902;9.542;2024-03-22T08:20:03;13.20;;;9.15;;
462;SDS011;218;51.902;9.542;2024-03-22T08:22:31;11.40;;;9.07;;
462;SDS011;218;51.902;9.542;2024-03-22T08:24:58;11.60;;;8.43;;
462;SDS011;218;51.902;9.542;2024-03-22T08:27:27;13.00;;;10.18;;
462;SDS011;218;51.902;9.542;2024-03-22T08:29:54;11.83;;;10.20;;
462;SDS011;218;51.902;9.542;2024-03-22T08:32:20;17.77;;;10.98;;
462;SDS011;218;51.902;9.542;2024-03-22T08:34:47;14.88;;;11.20;;
462;SDS011;218;51.902;9.542;2024-03-22T08:37:13;14.13;;;11.10;;
462;SDS011;218;51.902;9.542;2024-03-22T08:39:42;13.32;;;11.50;;
462;SDS011;218;51.902;9.542;2024-03-22T08:42:08;12.02;;;10.60;;
462;SDS011;218;51.902;9.542;2024-03-22T08:44:35;16.00;;;7.80;;
462;SDS011;218;51.902;9.542;2024-03-22T08:47:01;16.88;;;9.43;;
462;SDS011;218;51.902;9.542;2024-03-22T08:49:28;19.60;;;11.45;;
462;SDS011;218;51.902;9.542;2024-03-22T08:51:55;20.92;;;11.23;;
462;SDS011;218;51.902;9.542;2024-03-22T08:54:22;19.60;;;10.20;;
462;SDS011;218;51.902;9.542;2024-03-22T08:56:49;17.77;;;10.63;;
462;SDS011;218;51.902;9.542;2024-03-22T08:59:16;12.80;;;10.77;;
462;SDS011;218;51.902;9.542;2024-03-22T09:01:42;19.90;;;11.30;;
462;SDS011;218;51.902;9.542;2024-03-22T09:04:09;16.20;;;11.27;;
462;SDS011;218;51.902;9.542;2024-03-22T09:06:35;15.48;;;12.50;;
462;SDS011;218;51.902;9.542;2024-03-22T09:09:02;18.02;;;13.98;;
462;SDS011;218;51.902;9.542;2024-03-22T09:11:29;16.33;;;10.70;;
462;SDS011;218;51.902;9.542;2024-03-22T09:13:58;15.45;;;11.27;;
462;SDS011;218;51.902;9.542;2024-03-22T09:16:24;16.70;;;11.43;;
462;SDS011;218;51.902;9.542;2024-03-22T09:18:51;20.30;;;14.27;;
462;SDS011;218;51.902;9.542;2024-03-22T09:21:17;16.38;;;11.52;;
462;SDS011;218;51.902;9.542;2024-03-22T09:23:44;14.50;;;10.95;;
462;SDS011;218;51.902;9.542;2024-03-22T09:26:10;16.75;;;11.10;;
462;SDS011;218;51.902;9.542;2024-03-22T09:28:37;14.60;;;10.77;;
462;SDS011;218;51.902;9.542;2024-03-22T09:31:05;15.88;;;11.60;;
462;SDS011;218;51.902;9.542;2024-03-22T09:33:50;13.25;;;11.02;;
462;SDS011;218;51.902;9.542;2024-03-22T09:36:17;14.60;;;11.40;;
462;SDS011;218;51.902;9.542;2024-03-22T09:38:44;13.73;;;10.90;;
462;SDS011;218;51.902;9.542;2024-03-22T09:41:10;16.40;;;11.37;;
462;SDS011;218;51.902;9.542;2024-03-22T09:43:38;14.88;;;12.38;;
462;SDS011;218;51.902;9.542;2024-03-22T09:46:06;16.50;;;11.57;;
462;SDS011;218;51.902;9.542;2024-03-22T09:48:34;17.50;;;11.37;;
462;SDS011;218;51.902;9.542;2024-03-22T09:51:01;14.43;;;11.35;;
462;SDS011;218;51.902;9.542;2024-03-22T09:53:28;16.45;;;10.50;;
462;SDS011;218;51.902;9.542;2024-03-22T09:55:57;15.53;;;9.80;;
462;SDS011;218;51.902;9.542;2024-03-22T09:58:27;12.48;;;9.95;;
462;SDS011;218;51.902;9.542;2024-03-22T10:00:53;15.05;;;10.55;;
462;SDS011;218;51.902;9.542;2024-03-22T10:03:26;15.32;;;9.98;;
462;SDS011;218;51.902;9.542;2024-03-22T10:05:52;16.13;;;9.23;;
462;SDS011;218;51.902;9.542;2024-03-22T10:08:20;19.00;;;9.03;;
462;SDS011;218;51.902;9.542;2024-03-22T10:10:46;14.23;;;8.60;;
462;SDS011;218;51.902;9.542;2024-03-22T10:13:13;12.63;;;10.30;;
462;SDS011;218;51.902;9.542;2024-03-22T10:15:39;12.82;;;7.85;;
462;SDS011;218;51.902;9.542;2024-03-22T10:18:06;17.43;;;8.70;;
462;SDS011;218;51.902;9.542;2024-03-22T10:20:35;18.58;;;8.35;;
462;SDS011;218;51.902;9.542;2024-03-22T10:23:02;17.43;;;8.40;;
462;SDS011;218;51.902;9.542;2024-03-22T10:25:28;18.87;;;8.40;;
462;SDS011;218;51.902;9.542;2024-03-22T10:27:56;24.52;;;10.30;;
462;SDS011;218;51.902;9.542;2024-03-22T10:30:24;15.65;;;9.85;;
462;SDS011;218;51.902;9.542;2024-03-22T10:32:51;10.23;;;9.07;;
462;SDS011;218;51.902;9.542;2024-03-22T10:35:18;12.07;;;9.40;;
462;SDS011;218;51.902;9.542;2024-03-22T10:37:49;23.00;;;10.53;;
462;SDS011;218;51.902;9.542;2024-03-22T10:40:16;12.93;;;8.37;;
462;SDS011;218;51.902;9.542;2024-03-22T10:42:43;11.52;;;8.77;;
462;SDS011;218;51.902;9.542;2024-03-22T10:45:10;10.10;;;7.72;;
462;SDS011;218;51.902;9.542;2024-03-22T10:47:39;17.55;;;6.88;;
462;SDS011;218;51.902;9.542;2024-03-22T10:50:06;24.50;;;7.13;;
462;SDS011;218;51.902;9.542;2024-03-22T10:52:36;12.10;;;6.40;;
462;SDS011;218;51.902;9.542;2024-03-22T10:55:07;12.33;;;6.40;;
462;SDS011;218;51.902;9.542;2024-03-22T10:57:38;8.48;;;6.15;;
462;SDS011;218;51.902;9.542;2024-03-22T11:00:07;18.33;;;7.57;;
462;SDS011;218;51.902;9.542;2024-03-22T11:02:36;8.35;;;7.20;;
462;SDS011;218;51.902;9.542;2024-03-22T11:05:02;8.02;;;6.18;;
462;SDS011;218;51.902;9.542;2024-03-22T11:07:30;13.40;;;12.00;;
462;SDS011;218;51.902;9.542;2024-03-22T11:09:57;11.05;;;7.72;;
462;SDS011;218;51.902;9.542;2024-03-22T11:12:26;8.93;;;6.60;;
462;SDS011;218;51.902;9.542;2024-03-22T11:18:15;9.30;;;6.70;;
462;SDS011;218;51.902;9.542;2024-03-22T11:20:42;13.02;;;6.60;;
462;SDS011;218;51.902;9.542;2024-03-22T11:23:10;7.70;;;6.10;;
462;SDS011;218;51.902;9.542;2024-03-22T11:25:37;7.53;;;6.87;;
462;SDS011;218;51.902;9.542;2024-03-22T11:28:05;7.30;;;6.18;;
462;SDS011;218;51.902;9.542;2024-03-22T11:30:32;8.90;;;6.82;;
462;SDS011;218;51.902;9.542;2024-03-22T11:33:00;7.75;;;5.80;;
462;SDS011;218;51.902;9.542;2024-03-22T11:35:28;11.70;;;7.00;;
462;SDS011;218;51.902;9.542;2024-03-22T11:37:54;10.63;;;7.00;;
462;SDS011;218;51.902;9.542;2024-03-22T11:40:23;7.95;;;6.28;;
462;SDS011;218;51.902;9.542;2024-03-22T11:42:51;8.50;;;7.68;;
462;SDS011;218;51.902;9.542;2024-03-22T11:45:21;8.07;;;6.50;;
462;SDS011;218;51.902;9.542;2024-03-22T11:47:49;9.68;;;8.73;;
462;SDS011;218;51.902;9.542;2024-03-22T11:50:17;10.38;;;7.70;;
462;SDS011;218;51.902;9.542;2024-03-22T11:52:43;8.40;;;7.43;;
462;SDS011;218;51.902;9.542;2024-03-22T11:55:12;6.25;;;5.65;;
462;SDS011;218;51.902;9.542;2024-03-22T11:57:39;9.40;;;8.43;;
462;SDS011;218;51.902;9.542;2024-03-22T12:00:06;6.32;;;4.50;;
462;SDS011;218;51.902;9.542;2024-03-22T12:02:35;5.80;;;5.03;;
462;SDS011;218;51.902;9.542;2024-03-22T12:05:03;5.68;;;4.75;;
462;SDS011;218;51.902;9.542;2024-03-22T12:07:30;6.50;;;4.75;;
462;SDS011;218;51.902;9.542;2024-03-22T12:09:57;7.53;;;6.05;;
462;SDS011;218;51.902;9.542;2024-03-22T12:12:23;6.10;;;4.70;;
462;SDS011;218;51.902;9.542;2024-03-22T12:14:51;6.87;;;6.10;;
462;SDS011;218;51.902;9.542;2024-03-22T12:17:18;9.45;;;8.85;;
462;SDS011;218;51.902;9.542;2024-03-22T12:19:46;6.78;;;5.40;;
462;SDS011;218;51.902;9.542;2024-03-22T12:22:12;6.07;;;5.47;;
462;SDS011;218;51.902;9.542;2024-03-22T12:24:40;5.30;;;3.55;;
462;SDS011;218;51.902;9.542;2024-03-22T12:27:07;6.10;;;4.63;;
462;SDS011;218;51.902;9.542;2024-03-22T12:29:36;4.20;;;3.85;;
462;SDS011;218;51.902;9.542;2024-03-22T12:32:02;4.80;;;4.40;;
462;SDS011;218;51.902;9.542;2024-03-22T12:34:29;5.05;;;4.60;;
462;SDS011;218;51.902;9.542;2024-03-22T12:36:59;5.40;;;4.38;;
462;SDS011;218;51.902;9.542;2024-03-22T12:39:27;4.27;;;3.87;;
462;SDS011;218;51.902;9.542;2024-03-22T12:41:53;4.77;;;4.13;;
462;SDS011;218;51.902;9.542;2024-03-22T12:44:20;5.13;;;3.70;;
462;SDS011;218;51.902;9.542;2024-03-22T12:46:46;10.35;;;9.65;;
462;SDS011;218;51.902;9.542;2024-03-22T12:49:16;4.72;;;3.33;;
462;SDS011;218;51.902;9.542;2024-03-22T12:51:42;4.67;;;4.27;;
462;SDS011;218;51.902;9.542;2024-03-22T12:54:10;6.38;;;5.88;;
462;SDS011;218;51.902;9.542;2024-03-22T12:56:38;4.95;;;3.65;;
462;SDS011;218;51.902;9.542;2024-03-22T12:59:05;4.63;;;4.27;;
462;SDS011;218;51.902;9.542;2024-03-22T13:01:32;4.25;;;3.85;;
462;SDS011;218;51.902;9.542;2024-03-22T13:03:59;5.63;;;5.13;;
462;SDS011;218;51.902;9.542;2024-03-22T13:06:25;3.85;;;3.53;;
462;SDS011;218;51.902;9.542;2024-03-22T13:08:52;5.90;;;4.05;;
462;SDS011;218;51.902;9.542;2024-03-22T13:11:21;4.23;;;2.80;;
462;SDS011;218;51.902;9.542;2024-03-22T13:13:49;5.60;;;4.53;;
462;SDS011;218;51.902;9.542;2024-03-22T13:16:15;4.35;;;3.95;;
462;SDS011;218;51.902;9.542;2024-03-22T13:18:42;6.87;;;6.43;;
462;SDS011;218;51.902;9.542;2024-03-22T13:21:09;3.03;;;2.53;;
462;SDS011;218;51.902;9.542;2024-03-22T13:23:36;4.40;;;3.93;;
462;SDS011;218;51.902;9.542;2024-03-22T13:26:03;3.60;;;3.03;;
462;SDS011;218;51.902;9.542;2024-03-22T13:28:33;3.83;;;3.53;;
462;SDS011;218;51.902;9.542;2024-03-22T13:30:59;3.63;;;2.80;;
462;SDS011;218;51.902;9.542;2024-03-22T13:33:27;6.60;;;6.20;;
462;SDS011;218;51.902;9.542;2024-03-22T13:35:54;2.78;;;2.53;;
462;SDS011;218;51.902;9.542;2024-03-22T13:38:21;4.30;;;3.90;;
462;SDS011;218;51.902;9.542;2024-03-22T13:40:52;3.28;;;3.03;;
462;SDS011;218;51.902;9.542;2024-03-22T13:43:20;3.70;;;3.40;;
462;SDS011;218;51.902;9.542;2024-03-22T13:45:48;3.37;;;3.07;;
462;SDS011;218;51.902;9.542;2024-03-22T13:48:19;3.58;;;3.13;;
462;SDS011;218;51.902;9.542;2024-03-22T13:50:47;3.92;;;3.63;;
462;SDS011;218;51.902;9.542;2024-03-22T13:53:16;3.78;;;3.47;;
462;SDS011;218;51.902;9.542;2024-03-22T13:55:42;2.90;;;2.70;;
462;SDS011;218;51.902;9.542;2024-03-22T13:58:09;3.10;;;2.80;;
462;SDS011;218;51.902;9.542;2024-03-22T14:00:35;3.40;;;3.10;;
462;SDS011;218;51.902;9.542;2024-03-22T14:03:04;4.72;;;4.43;;
462;SDS011;218;51.902;9.542;2024-03-22T14:07:57;3.50;;;3.20;;
462;SDS011;218;51.902;9.542;2024-03-22T14:10:24;4.57;;;2.75;;
462;SDS011;218;51.902;9.542;2024-03-22T14:12:52;3.28;;;2.78;;
462;SDS011;218;51.902;9.542;2024-03-22T14:15:19;2.72;;;2.45;;
462;SDS011;218;51.902;9.542;2024-03-22T14:17:46;3.15;;;2.85;;
462;SDS011;218;51.902;9.542;2024-03-22T14:20:14;2.95;;;2.65;;
462;SDS011;218;51.902;9.542;2024-03-22T14:22:42;3.95;;;2.85;;
462;SDS011;218;51.902;9.542;2024-03-22T14:25:08;3.45;;;2.88;;
462;SDS011;218;51.902;9.542;2024-03-22T14:27:36;2.75;;;2.55;;
462;SDS011;218;51.902;9.542;2024-03-22T14:30:02;3.50;;;2.95;;
462;SDS011;218;51.902;9.542;2024-03-22T14:32:31;2.77;;;2.40;;
462;SDS011;218;51.902;9.542;2024-03-22T14:38:02;2.47;;;1.80;;
462;SDS011;218;51.902;9.542;2024-03-22T14:40:29;2.50;;;2.30;;
462;SDS011;218;51.902;9.542;2024-03-22T14:42:56;2.92;;;2.42;;
462;SDS011;218;51.902;9.542;2024-03-22T14:45:23;3.00;;;2.70;;
462;SDS011;218;51.902;9.542;2024-03-22T14:47:49;3.90;;;3.60;;
462;SDS011;218;51.902;9.542;2024-03-22T14:50:17;2.72;;;2.53;;
462;SDS011;218;51.902;9.542;2024-03-22T14:52:42;2.53;;;2.33;;
462;SDS011;218;51.902;9.542;2024-03-22T14:55:11;3.20;;;2.90;;
462;SDS011;218;51.902;9.542;2024-03-22T14:57:37;2.25;;;2.10;;
462;SDS011;218;51.902;9.542;2024-03-22T15:00:05;3.05;;;2.80;;
462;SDS011;218;51.902;9.542;2024-03-22T15:02:35;2.60;;;2.40;;
462;SDS011;218;51.902;9.542;2024-03-22T15:05:02;2.70;;;2.50;;
462;SDS011;218;51.902;9.542;2024-03-22T15:07:29;2.00;;;1.80;;
462;SDS011;218;51.902;9.542;2024-03-22T15:09:56;4.00;;;3.47;;
462;SDS011;218;51.902;9.542;2024-03-22T15:12:23;1.83;;;1.70;;
462;SDS011;218;51.902;9.542;2024-03-22T15:14:51;2.77;;;2.57;;
462;SDS011;218;51.902;9.542;2024-03-22T15:17:18;2.30;;;1.70;;
462;SDS011;218;51.902;9.542;2024-03-22T15:19:47;2.78;;;2.58;;
462;SDS011;218;51.902;9.542;2024-03-22T15:22:14;3.67;;;2.58;;
462;SDS011;218;51.902;9.542;2024-03-22T15:24:43;8.32;;;3.65;;
462;SDS011;218;51.902;9.542;2024-03-22T15:27:09;7.50;;;4.00;;
462;SDS011;218;51.902;9.542;2024-03-22T15:29:39;11.18;;;3.58;;
462;SDS011;218;51.902;9.542;2024-03-22T15:32:05;8.13;;;4.10;;
462;SDS011;218;51.902;9.542;2024-03-22T15:34:33;8.23;;;3.92;;
462;SDS011;218;51.902;9.542;2024-03-22T15:36:59;5.85;;;3.53;;
462;SDS011;218;51.902;9.542;2024-03-22T15:39:26;5.80;;;4.70;;
462;SDS011;218;51.902;9.542;2024-03-22T15:41:53;11.55;;;3.60;;